Malaysia Virtual Airlines Airport Information Service

Kennedy International

ICAO: KJFK Country: USA
Latitude: 40.6398 Longitude: -73.7787
Latest Arrival : AA1851 (KBOS-KJFK) Latest Departure : AA44 (KJFK-LFPG)


WX CaptureLIVE
Data provided by noaa.gov | Fetched at 15:35:09

METAR : KJFK 261451Z 34008KT 9SM BKN280 30/18 A2990 RMK AO2 SLP124 T03000178 51002

TAF : KJFK 261420Z 2614/2718 36006KT P6SM BKN250 FM261600 VRB05KT P6SM FEW060 BKN250 FM261700 19009KT P6SM SCT060 BKN250 FM261900 18013KT P6SM SCT060 BKN250 FM270100 21009KT P6SM FEW070 FM270300 27006KT P6SM FEW070 FM270600 32005KT P6SM SKC FM271500 22007KT P6SM SKC


Runway Data for KJFK
Data provided by openaviationdata.com

Runway ID Mag Var Hdg Length Elevation Surface ILS Freq ILS Id ILS Slope
04L -14 44° 11353 ft 13 ft Asphalt 110.9 IHIQ 3
04R -14 44° 8401 ft 13 ft Asphalt 109.5 IJFK 3
13L -14 134° 9992 ft 13 ft Asphalt 111.5 ITLK 3
13R -14 134° 14564 ft 13 ft Asphalt -- -- --
22L -14 224° 8401 ft 13 ft Asphalt 110.9 IIWY 3
22R -14 224° 11353 ft 13 ft Asphalt 109.5 IJOC 3
31L -14 314° 14564 ft 13 ft Asphalt 111.35 IMOH 3
31R -14 314° 9992 ft 13 ft Asphalt 111.5 IRTH 3

Kennedy International, USA
Use only for reference purposes



Not for navigational purposes.